Time;durP1;ratioP1;P1;durP2;ratioP2;P2;SDS_P1;SDS_P2;PMS_P1;PMS_P2;Temp;Humidity;BMP_temperature;BMP_pressure;BME280_temperature;BME280_humidity;BME280_pressure;Samples;Min_cycle;Max_cycle;Signal;HPM_P1;HPM_P2
2022/04/28 00:01:52;;;;;;;10.80;4.35;;;9.90;99.90;;;;;;5093102;28;20036;-62
2022/04/28 00:04:18;;;;;;;7.75;3.20;;;9.00;99.90;;;;;;5092979;28;20044;-61
2022/04/28 00:06:44;;;;;;;10.00;3.25;;;10.00;99.90;;;;;;5092951;28;20047;-62
2022/04/28 00:09:10;;;;;;;11.35;3.03;;;8.30;99.90;;;;;;5091920;28;20135;-62
2022/04/28 00:11:36;;;;;;;11.18;3.13;;;8.80;99.90;;;;;;5092949;28;20052;-63
2022/04/28 00:14:02;;;;;;;13.48;3.45;;;10.10;99.90;;;;;;5092913;28;20090;-62
2022/04/28 00:16:27;;;;;;;11.23;3.72;;;8.60;99.90;;;;;;5092849;28;20044;-62
2022/04/28 00:18:54;;;;;;;14.73;4.00;;;9.80;99.90;;;;;;5091795;28;20052;-62
2022/04/28 00:21:20;;;;;;;;;;;9.40;99.90;;;;;;5093472;28;20043;-62
2022/04/28 00:23:46;;;;;;;8.05;3.10;;;8.40;99.90;;;;;;5092816;28;19962;-62
2022/04/28 00:26:12;;;;;;;10.38;3.30;;;8.60;99.90;;;;;;5092790;28;20086;-62
2022/04/28 00:28:38;;;;;;;10.77;4.03;;;8.50;99.90;;;;;;5092713;28;20047;-62
2022/04/28 00:31:04;;;;;;;8.73;3.67;;;8.70;99.90;;;;;;5092684;28;20040;-62
2022/04/28 00:33:29;;;;;;;12.32;4.30;;;8.80;99.90;;;;;;5092179;28;20052;-62
2022/04/28 00:35:56;;;;;;;10.18;3.63;;;8.60;99.90;;;;;;5092683;28;20060;-62
2022/04/28 00:38:22;;;;;;;8.25;3.30;;;8.50;99.90;;;;;;5092788;28;20051;-62
2022/04/28 00:40:47;;;;;;;10.80;3.70;;;8.50;99.90;;;;;;5092599;28;20111;-63
2022/04/28 00:43:19;;;;;;;8.85;3.15;;;8.70;99.90;;;;;;5092569;28;20438;-62
2022/04/28 00:45:49;;;;;;;10.38;4.30;;;9.60;99.90;;;;;;5092429;28;20490;-62
2022/04/28 00:51:02;;;;;;;12.93;4.30;;;8.60;99.90;;;;;;5092526;28;20048;-62
2022/04/28 00:53:35;;;;;;;8.15;3.88;;;9.20;99.90;;;;;;5092430;28;20395;-62
2022/04/28 00:56:02;;;;;;;14.18;4.43;;;9.50;99.90;;;;;;5092456;28;20059;-63
2022/04/28 00:58:28;;;;;;;7.10;3.70;;;8.90;99.90;;;;;;5091175;28;20503;-62
2022/04/28 01:00:56;;;;;;;10.32;3.70;;;8.60;99.90;;;;;;5092552;28;20044;-62
2022/04/28 01:03:23;;;;;;;8.63;3.50;;;8.60;99.90;;;;;;5092313;28;20147;-61
2022/04/28 01:05:49;;;;;;;10.77;3.40;;;8.70;99.90;;;;;;5092476;28;20411;-63
2022/04/28 01:08:15;;;;;;;;;;;8.90;99.90;;;;;;5092659;28;20087;-62
2022/04/28 01:10:41;;;;;;;9.27;3.35;;;9.40;99.90;;;;;;5092112;28;20006;-62
2022/04/28 01:13:06;;;;;;;8.35;3.38;;;9.50;99.90;;;;;;5092208;28;20469;-61
2022/04/28 01:15:46;;;;;;;7.47;3.22;;;8.30;99.90;;;;;;5092348;28;20055;-62
2022/04/28 01:18:12;;;;;;;8.48;3.38;;;8.60;99.90;;;;;;5091235;28;20052;-62
2022/04/28 01:20:38;;;;;;;12.32;3.30;;;8.60;99.90;;;;;;5092154;28;20174;-62
2022/04/28 01:23:04;;;;;;;6.95;3.33;;;8.70;99.90;;;;;;5092244;28;20122;-62
2022/04/28 01:25:30;;;;;;;6.88;3.65;;;8.80;99.90;;;;;;5092033;28;20052;-62
2022/04/28 01:27:57;;;;;;;5.05;3.30;;;9.00;99.90;;;;;;5090763;28;20040;-62
2022/04/28 01:30:23;;;;;;;10.68;4.10;;;8.90;99.90;;;;;;5092231;28;20044;-63
2022/04/28 01:32:50;;;;;;;13.38;3.88;;;8.50;99.90;;;;;;5091785;28;20143;-62
2022/04/28 01:35:16;;;;;;;8.63;3.58;;;9.40;99.90;;;;;;5092081;28;20391;-62
2022/04/28 01:37:41;;;;;;;13.23;3.88;;;8.70;99.90;;;;;;5091910;28;20040;-62
2022/04/28 01:40:13;;;;;;;13.48;4.68;;;9.80;99.90;;;;;;5091939;28;20415;-62
2022/04/28 01:42:39;;;;;;;8.65;4.15;;;8.80;99.90;;;;;;5092034;28;20414;-62
2022/04/28 01:45:07;;;;;;;12.25;4.93;;;8.80;99.90;;;;;;5093261;28;20051;-62
2022/04/28 01:47:33;;;;;;;9.70;4.55;;;8.40;99.90;;;;;;5095801;28;20083;-63
2022/04/28 01:49:59;;;;;;;;;;;8.80;99.90;;;;;;5096086;28;20105;-62
2022/04/28 01:55:31;;;;;;;10.15;3.95;;;9.40;99.90;;;;;;5052866;28;20048;-62
2022/04/28 01:57:57;;;;;;;10.57;3.95;;;10.80;99.90;;;;;;5052935;28;20052;-62
2022/04/28 02:00:22;;;;;;;;;;;8.40;99.90;;;;;;5063139;28;20078;-62
2022/04/28 02:02:48;;;;;;;8.23;4.28;;;9.40;99.90;;;;;;5095311;28;19923;-62
2022/04/28 02:05:14;;;;;;;8.77;4.13;;;9.20;99.90;;;;;;5095633;28;20063;-62
2022/04/28 02:07:41;;;;;;;7.43;3.42;;;8.40;99.90;;;;;;5095224;28;20516;-62
2022/04/28 02:10:07;;;;;;;7.53;3.30;;;9.60;99.90;;;;;;5094231;28;20048;-62
2022/04/28 02:12:33;;;;;;;7.10;3.75;;;8.50;99.90;;;;;;5095266;28;20475;-63
2022/04/28 02:14:59;;;;;;;8.52;3.58;;;9.80;99.90;;;;;;5095349;28;20097;-62
2022/04/28 02:17:27;;;;;;;12.45;3.80;;;8.30;99.90;;;;;;5095111;28;20040;-62
2022/04/28 02:19:54;;;;;;;6.72;3.13;;;8.50;99.90;;;;;;5094933;28;20515;-62
2022/04/28 02:22:20;;;;;;;9.13;3.28;;;8.40;99.90;;;;;;5095282;28;20124;-62
2022/04/28 02:24:47;;;;;;;8.98;3.15;;;8.40;99.90;;;;;;5095099;28;20044;-62
2022/04/28 02:27:13;;;;;;;10.15;3.95;;;9.80;99.90;;;;;;5095171;28;20095;-63
2022/04/28 02:29:39;;;;;;;8.98;4.03;;;8.40;99.90;;;;;;5094995;28;20044;-62
2022/04/28 02:32:05;;;;;;;9.05;3.60;;;8.60;99.90;;;;;;5094469;28;20046;-63
2022/04/28 02:34:31;;;;;;;6.65;3.30;;;8.30;99.90;;;;;;5094775;28;20155;-62
2022/04/28 02:36:57;;;;;;;8.63;3.90;;;8.50;99.90;;;;;;5095004;28;20135;-62
2022/04/28 02:39:23;;;;;;;8.30;3.50;;;8.20;99.90;;;;;;5094806;28;20079;-63
2022/04/28 02:41:49;;;;;;;9.20;3.95;;;8.60;99.90;;;;;;5094766;28;20384;-62
2022/04/28 02:44:15;;;;;;;10.35;3.67;;;9.10;99.90;;;;;;5094779;28;20081;-63
2022/04/28 02:46:48;;;;;;;9.02;4.00;;;9.10;99.90;;;;;;5093278;28;20093;-62
2022/04/28 02:49:14;;;;;;;11.52;4.18;;;9.40;99.90;;;;;;5093612;28;20170;-62
2022/04/28 02:51:41;;;;;;;9.20;4.18;;;8.40;99.90;;;;;;5093331;28;20044;-62
2022/04/28 02:54:06;;;;;;;8.52;3.40;;;8.20;99.90;;;;;;5094533;28;20043;-62
2022/04/28 02:56:33;;;;;;;8.27;3.38;;;9.30;99.90;;;;;;5093892;28;20040;-62
2022/04/28 02:58:59;;;;;;;9.93;3.95;;;8.80;99.90;;;;;;5094303;28;20044;-62
2022/04/28 03:01:25;;;;;;;9.00;3.83;;;8.20;99.90;;;;;;5094237;28;20074;-63
2022/04/28 03:03:51;;;;;;;;;;;8.20;99.90;;;;;;5094846;28;20083;-62
2022/04/28 03:11:47;;;;;;;15.40;5.25;;;8.60;99.90;;;;;;5093940;28;20483;-63
2022/04/28 03:14:13;;;;;;;12.35;5.63;;;8.40;99.90;;;;;;5094008;28;20048;-62
2022/04/28 03:16:38;;;;;;;14.18;5.57;;;8.50;99.90;;;;;;5094167;28;20055;-63
2022/04/28 03:19:04;;;;;;;13.88;5.57;;;8.50;99.90;;;;;;5059634;28;20062;-62
2022/04/28 03:21:31;;;;;;;20.10;4.93;;;8.90;99.90;;;;;;5094092;28;20071;-62
2022/04/28 03:23:57;;;;;;;14.75;4.85;;;8.50;99.90;;;;;;5093861;28;20091;-62
2022/04/28 03:26:23;;;;;;;20.73;5.07;;;9.40;99.90;;;;;;5093777;28;20135;-63
2022/04/28 03:28:49;;;;;;;16.60;5.15;;;9.20;99.90;;;;;;5093976;28;20090;-63
2022/04/28 03:31:14;;;;;;;14.82;5.50;;;8.90;99.90;;;;;;5093667;28;20051;-62
2022/04/28 03:33:40;;;;;;;17.00;5.53;;;8.30;99.90;;;;;;5093783;28;20064;-62
2022/04/28 03:38:50;;;;;;;14.27;5.20;;;8.60;99.90;;;;;;5093538;28;20419;-63
2022/04/28 03:41:16;;;;;;;16.20;5.20;;;9.70;99.90;;;;;;5093555;28;20036;-62
2022/04/28 03:43:41;;;;;;;13.65;4.95;;;8.40;99.90;;;;;;5092402;28;20048;-62
2022/04/28 03:46:07;;;;;;;11.70;4.63;;;8.60;99.90;;;;;;5092341;28;20048;-61
2022/04/28 03:48:32;;;;;;;12.77;4.80;;;8.90;99.90;;;;;;5093376;28;20047;-62
2022/04/28 03:50:58;;;;;;;20.02;4.80;;;8.60;99.90;;;;;;5093356;28;20044;-62
2022/04/28 03:53:24;;;;;;;16.63;5.35;;;8.60;99.90;;;;;;5093262;28;20582;-63
2022/04/28 03:55:50;;;;;;;21.35;5.40;;;8.90;99.90;;;;;;5093424;28;20638;-63
2022/04/28 03:58:16;;;;;;;16.38;4.45;;;8.30;99.90;;;;;;5093433;28;20050;-61
2022/04/28 04:00:43;;;;;;;15.18;4.60;;;9.50;99.90;;;;;;5093316;28;20437;-62
2022/04/28 04:03:09;;;;;;;17.67;3.95;;;8.80;99.90;;;;;;5093205;28;20052;-61
2022/04/28 04:05:35;;;;;;;8.25;3.72;;;8.60;99.90;;;;;;5093100;28;20132;-62
2022/04/28 04:08:01;;;;;;;15.60;4.65;;;8.60;99.90;;;;;;5092382;28;20513;-62
2022/04/28 04:10:26;;;;;;;8.40;3.70;;;8.30;99.90;;;;;;5092782;28;20364;-61
2022/04/28 04:12:52;;;;;;;18.48;4.40;;;8.40;99.90;;;;;;5074941;28;20075;-61
2022/04/28 04:15:18;;;;;;;13.07;4.57;;;8.00;99.90;;;;;;5092875;28;20392;-61
2022/04/28 04:17:45;;;;;;;13.45;5.95;;;8.90;99.90;;;;;;5092979;28;20148;-61
2022/04/28 04:20:11;;;;;;;13.23;5.50;;;8.40;99.90;;;;;;5092952;28;20182;-61
2022/04/28 04:22:38;;;;;;;10.10;5.53;;;8.10;99.90;;;;;;5092860;28;20044;-61
2022/04/28 04:25:04;;;;;;;16.45;5.93;;;7.90;99.90;;;;;;5093006;28;20442;-62
2022/04/28 04:27:30;;;;;;;20.05;5.50;;;7.70;99.90;;;;;;5092790;28;20118;-62
2022/04/28 04:29:56;;;;;;;11.20;4.90;;;7.70;99.90;;;;;;5092703;28;20182;-62
2022/04/28 04:32:25;;;;;;;15.43;5.15;;;7.60;99.90;;;;;;5092328;28;20052;-61
2022/04/28 04:34:54;;;;;;;18.13;4.47;;;7.60;99.90;;;;;;5092704;28;20055;-62
2022/04/28 04:37:21;;;;;;;14.45;4.57;;;7.50;99.90;;;;;;5092587;28;20051;-62
2022/04/28 04:39:48;;;;;;;12.05;4.30;;;7.50;99.90;;;;;;5092716;28;20462;-62
2022/04/28 04:42:14;;;;;;;12.98;4.10;;;7.60;99.90;;;;;;5092643;28;20046;-61
2022/04/28 04:44:40;;;;;;;13.80;4.65;;;7.60;99.90;;;;;;5092591;28;20040;-62
2022/04/28 04:47:06;;;;;;;10.55;4.65;;;7.60;99.90;;;;;;5092638;28;20422;-61
2022/04/28 04:49:31;;;;;;;16.42;5.20;;;7.60;99.90;;;;;;5092453;28;20046;-62
2022/04/28 04:51:57;;;;;;;13.70;4.50;;;7.60;99.90;;;;;;5092243;28;20037;-62
2022/04/28 04:54:23;;;;;;;13.55;4.88;;;7.50;99.90;;;;;;5092389;28;20073;-62
2022/04/28 04:56:48;;;;;;;15.43;4.80;;;7.60;99.90;;;;;;5092264;28;20454;-62
2022/04/28 04:59:14;;;;;;;11.52;4.65;;;7.50;99.90;;;;;;5091274;28;20044;-62
2022/04/28 05:01:40;;;;;;;15.05;4.65;;;7.60;99.90;;;;;;5091109;28;20081;-63
2022/04/28 05:04:06;;;;;;;13.60;5.20;;;7.70;99.90;;;;;;5092340;28;20051;-63
2022/04/28 05:06:32;;;;;;;13.65;4.10;;;7.70;99.90;;;;;;5092178;28;20055;-63
2022/04/28 05:08:58;;;;;;;11.43;4.45;;;7.90;99.90;;;;;;5092483;28;20051;-62
2022/04/28 05:11:23;;;;;;;16.63;4.50;;;7.70;99.90;;;;;;5092173;28;20129;-62
2022/04/28 05:13:49;;;;;;;11.80;4.57;;;7.70;99.90;;;;;;5092349;28;20166;-61
2022/04/28 05:16:15;;;;;;;14.07;3.70;;;7.80;99.90;;;;;;5092352;28;20079;-64
2022/04/28 05:18:41;;;;;;;10.43;3.90;;;8.10;99.90;;;;;;5092214;28;20105;-62
2022/04/28 05:21:06;;;;;;;9.60;3.72;;;7.70;99.90;;;;;;5095235;28;20507;-62
2022/04/28 05:23:32;;;;;;;17.20;3.85;;;8.10;99.90;;;;;;5096309;28;20101;-61
2022/04/28 05:25:58;;;;;;;11.32;3.60;;;7.90;99.90;;;;;;5096362;28;20341;-62
2022/04/28 05:28:27;;;;;;;14.35;3.88;;;7.90;99.90;;;;;;5096126;28;20063;-62
2022/04/28 05:30:55;;;;;;;15.13;3.85;;;8.10;99.90;;;;;;5094927;28;20458;-62
2022/04/28 05:33:22;;;;;;;11.10;3.28;;;9.60;99.90;;;;;;5095899;28;20060;-62
2022/04/28 05:35:48;;;;;;;10.43;3.70;;;8.60;99.90;;;;;;5095884;28;20134;-61
2022/04/28 05:38:14;;;;;;;14.85;4.00;;;8.50;99.90;;;;;;5096181;28;20047;-62
2022/04/28 05:40:43;;;;;;;10.45;3.10;;;8.30;99.90;;;;;;5095827;28;20073;-62
2022/04/28 05:45:55;;;;;;;6.22;2.92;;;8.10;99.90;;;;;;5095723;28;20062;-63
2022/04/28 05:48:21;;;;;;;13.43;3.33;;;8.20;99.90;;;;;;5095554;28;20051;-62
2022/04/28 05:50:47;;;;;;;9.48;3.33;;;8.40;99.90;;;;;;5094278;28;20044;-61
2022/04/28 05:53:13;;;;;;;11.77;2.90;;;8.40;99.90;;;;;;5095956;28;20094;-61
2022/04/28 05:55:40;;;;;;;15.63;2.75;;;8.60;99.90;;;;;;5095839;28;20048;-62
2022/04/28 05:58:06;;;;;;;9.45;2.35;;;8.50;99.90;;;;;;5095581;28;20048;-62
2022/04/28 06:00:33;;;;;;;12.32;2.88;;;9.40;99.90;;;;;;5094335;28;20127;-62
2022/04/28 06:02:59;;;;;;;10.90;2.58;;;8.60;99.90;;;;;;5095381;28;20460;-62
2022/04/28 06:05:25;;;;;;;14.32;3.20;;;8.60;99.90;;;;;;5095597;28;20130;-62
2022/04/28 06:07:51;;;;;;;15.23;2.60;;;8.70;99.90;;;;;;5094184;28;20077;-63
2022/04/28 06:10:17;;;;;;;14.73;3.17;;;8.70;99.90;;;;;;5095415;28;20040;-63
2022/04/28 06:12:43;;;;;;;13.13;3.25;;;9.00;99.90;;;;;;5094038;28;20044;-62
2022/04/28 06:15:09;;;;;;;8.15;2.35;;;8.60;99.90;;;;;;5095142;28;20512;-62
2022/04/28 06:17:35;;;;;;;12.13;3.78;;;9.00;99.90;;;;;;5095448;28;20048;-62
2022/04/28 06:20:02;;;;;;;11.30;2.70;;;9.20;99.90;;;;;;5094067;28;20052;-62
2022/04/28 06:22:28;;;;;;;11.43;2.42;;;9.30;99.90;;;;;;5095070;28;20484;-63
2022/04/28 06:24:55;;;;;;;12.38;3.45;;;9.30;99.90;;;;;;5095005;28;20050;-61
2022/04/28 06:27:21;;;;;;;12.40;2.95;;;9.70;99.90;;;;;;5095049;28;20047;-62
2022/04/28 06:29:49;;;;;;;12.65;2.10;;;9.50;99.90;;;;;;5094865;28;20040;-62
2022/04/28 06:32:20;;;;;;;13.93;3.38;;;9.30;99.90;;;;;;5093798;28;20431;-61
2022/04/28 06:34:47;;;;;;;10.00;2.47;;;8.90;99.90;;;;;;5094999;28;20073;-62
2022/04/28 06:37:16;;;;;;;14.10;3.03;;;10.70;99.90;;;;;;5094906;28;20131;-63
2022/04/28 06:39:42;;;;;;;10.93;2.53;;;9.40;99.90;;;;;;5094880;28;20087;-63
2022/04/28 06:42:08;;;;;;;11.45;2.60;;;9.90;99.90;;;;;;5094749;28;20078;-62
2022/04/28 06:44:34;;;;;;;12.98;2.60;;;9.20;99.90;;;;;;5094653;28;20036;-62
2022/04/28 06:47:00;;;;;;;6.90;2.20;;;9.70;99.90;;;;;;5094653;28;20097;-62
2022/04/28 06:49:25;;;;;;;12.57;2.47;;;10.40;99.90;;;;;;5094653;28;20061;-62
2022/04/28 06:51:51;;;;;;;15.02;2.90;;;9.40;99.90;;;;;;5094641;28;20365;-63
2022/04/28 06:54:17;;;;;;;11.77;2.20;;;8.90;99.90;;;;;;5094518;28;20051;-63
2022/04/28 06:56:43;;;;;;;7.10;2.53;;;9.30;99.90;;;;;;5094541;28;20044;-61
2022/04/28 06:59:09;;;;;;;9.25;2.40;;;10.40;99.90;;;;;;5094216;28;20039;-62
2022/04/28 07:01:35;;;;;;;13.05;2.80;;;10.00;99.90;;;;;;5094623;28;20051;-62
2022/04/28 07:04:01;;;;;;;14.15;2.40;;;10.80;99.90;;;;;;5094364;28;20040;-62
2022/04/28 07:06:27;;;;;;;9.60;2.95;;;9.70;99.90;;;;;;5094399;28;20051;-63
2022/04/28 07:08:53;;;;;;;13.10;2.25;;;9.80;99.90;;;;;;5093159;28;20083;-62
2022/04/28 07:11:18;;;;;;;7.78;2.17;;;9.90;99.90;;;;;;5094017;28;20084;-62
2022/04/28 07:13:44;;;;;;;12.60;2.28;;;9.60;99.90;;;;;;5094018;28;20456;-62
2022/04/28 07:16:10;;;;;;;10.05;2.40;;;9.90;99.90;;;;;;5093139;28;20050;-63
2022/04/28 07:18:36;;;;;;;8.30;2.28;;;10.50;99.90;;;;;;5094380;28;20102;-62
2022/04/28 07:21:02;;;;;;;9.60;2.45;;;9.80;99.90;;;;;;5093861;28;20407;-63
2022/04/28 07:23:28;;;;;;;8.23;2.47;;;11.00;99.90;;;;;;5094039;28;20059;-62
2022/04/28 07:25:54;;;;;;;8.68;2.38;;;9.50;99.90;;;;;;5093867;28;20052;-62
2022/04/28 07:28:19;;;;;;;9.20;2.55;;;9.80;99.90;;;;;;5093775;28;20044;-62
2022/04/28 07:30:45;;;;;;;13.90;2.95;;;9.70;99.90;;;;;;5093688;28;20086;-62
2022/04/28 07:33:11;;;;;;;5.68;2.13;;;10.60;99.90;;;;;;5093568;28;20060;-63
2022/04/28 07:35:37;;;;;;;14.40;3.13;;;9.90;99.90;;;;;;5093656;28;20047;-62
2022/04/28 07:38:03;;;;;;;16.48;3.95;;;9.60;99.90;;;;;;5093366;28;20051;-63
2022/04/28 07:40:30;;;;;;;13.98;3.00;;;9.80;99.90;;;;;;5093381;28;20372;-62
2022/04/28 07:42:56;;;;;;;10.43;2.50;;;10.20;99.90;;;;;;5093040;28;20408;-62
2022/04/28 07:45:22;;;;;;;11.77;3.60;;;10.10;99.90;;;;;;5093239;28;20520;-63
2022/04/28 07:47:49;;;;;;;10.13;2.58;;;11.60;99.90;;;;;;5093151;28;20101;-63
2022/04/28 07:50:15;;;;;;;12.85;3.10;;;11.10;99.90;;;;;;5064850;28;20056;-61
2022/04/28 07:52:42;;;;;;;12.48;3.85;;;10.30;99.90;;;;;;5072351;28;20495;-61
2022/04/28 07:55:09;;;;;;;10.02;2.25;;;10.40;99.90;;;;;;5072320;28;20045;-62
2022/04/28 07:57:34;;;;;;;13.07;2.50;;;9.80;99.90;;;;;;5072207;28;20128;-61
2022/04/28 08:00:00;;;;;;;10.63;2.67;;;10.20;99.90;;;;;;5072658;28;20120;-61
2022/04/28 08:02:27;;;;;;;9.45;2.90;;;10.00;99.90;;;;;;5071242;28;20089;-61
2022/04/28 08:04:53;;;;;;;14.43;3.05;;;11.00;99.90;;;;;;5072447;28;20406;-61
2022/04/28 08:07:19;;;;;;;11.85;3.15;;;10.20;99.90;;;;;;5072492;28;20377;-62
2022/04/28 08:09:44;;;;;;;12.65;3.47;;;11.30;99.90;;;;;;5072235;28;20086;-61
2022/04/28 08:12:10;;;;;;;16.80;3.33;;;11.20;99.90;;;;;;5072048;28;20127;-61
2022/04/28 08:14:37;;;;;;;22.80;4.38;;;10.60;99.90;;;;;;5071380;28;20148;-61
2022/04/28 08:17:03;;;;;;;12.38;2.78;;;10.50;99.90;;;;;;5072490;28;20063;-62
2022/04/28 08:19:30;;;;;;;14.35;3.63;;;10.80;99.90;;;;;;5072478;28;20041;-63
2022/04/28 08:21:56;;;;;;;13.73;4.10;;;11.80;99.90;;;;;;5070957;28;20044;-62
2022/04/28 08:24:21;;;;;;;11.57;3.63;;;10.80;99.90;;;;;;5070928;28;20040;-62
2022/04/28 08:26:47;;;;;;;12.88;3.95;;;10.40;99.90;;;;;;5071341;28;20131;-64
2022/04/28 08:29:14;;;;;;;22.77;4.85;;;10.40;99.90;;;;;;5072367;28;20044;-63
2022/04/28 08:31:44;;;;;;;14.13;4.32;;;10.70;99.90;;;;;;5072368;28;20052;-64
2022/04/28 08:34:14;;;;;;;11.38;4.35;;;10.90;99.90;;;;;;5072184;28;20065;-63
2022/04/28 08:36:41;;;;;;;15.70;3.40;;;11.10;99.90;;;;;;5072183;28;20059;-62
2022/04/28 08:39:07;;;;;;;13.63;3.30;;;10.70;99.90;;;;;;5070847;28;20078;-61
2022/04/28 08:41:35;;;;;;;11.23;3.15;;;10.80;99.90;;;;;;5071881;28;20044;-61
2022/04/28 08:44:02;;;;;;;9.90;2.67;;;10.80;99.90;;;;;;5071944;28;20073;-61
2022/04/28 08:49:14;;;;;;;13.45;3.58;;;10.60;99.90;;;;;;5071821;28;20059;-61
2022/04/28 08:51:41;;;;;;;10.95;4.10;;;10.60;99.90;;;;;;5070118;28;20476;-62
2022/04/28 08:54:10;;;;;;;13.05;3.63;;;11.60;99.90;;;;;;5071695;28;20051;-62
2022/04/28 08:56:35;;;;;;;15.20;4.28;;;11.00;99.90;;;;;;5070321;28;20048;-62
2022/04/28 08:59:01;;;;;;;14.85;3.95;;;11.10;99.90;;;;;;5071968;28;20067;-63
2022/04/28 09:01:28;;;;;;;18.83;3.80;;;10.80;99.90;;;;;;5060863;28;20102;-62
2022/04/28 09:03:59;;;;;;;12.20;3.88;;;11.10;99.90;;;;;;5050637;28;20069;-62
2022/04/28 09:06:29;;;;;;;13.98;4.20;;;11.70;99.90;;;;;;5049795;28;20183;-61
2022/04/28 09:08:57;;;;;;;12.38;3.95;;;10.60;99.90;;;;;;5070477;28;20119;-62
2022/04/28 09:11:28;;;;;;;12.38;3.53;;;11.10;99.90;;;;;;5065802;28;20285;-60
2022/04/28 09:14:09;;;;;;;11.77;3.72;;;11.10;99.90;;;;;;5063198;28;20097;-61
2022/04/28 09:16:37;;;;;;;14.57;3.75;;;11.10;99.90;;;;;;5069576;28;20056;-62
2022/04/28 09:19:03;;;;;;;15.85;3.75;;;11.00;99.90;;;;;;5070382;28;20134;-62
2022/04/28 09:21:34;;;;;;;11.18;3.40;;;11.30;99.90;;;;;;5066224;28;20041;-62
2022/04/28 09:24:01;;;;;;;14.32;3.72;;;11.10;99.90;;;;;;5070478;28;20040;-61
2022/04/28 09:26:27;;;;;;;15.32;4.28;;;11.70;99.90;;;;;;5070359;28;20142;-62
2022/04/28 09:28:53;;;;;;;15.13;3.42;;;11.50;99.90;;;;;;5068193;28;20052;-62
2022/04/28 09:31:21;;;;;;;13.95;3.72;;;11.00;99.90;;;;;;5071050;28;20037;-62
2022/04/28 09:33:50;;;;;;;14.88;4.05;;;11.20;99.90;;;;;;5070996;28;20471;-61
2022/04/28 09:36:16;;;;;;;16.58;3.35;;;11.40;99.90;;;;;;5071283;28;20053;-61
2022/04/28 09:38:41;;;;;;;;;;;11.70;99.90;;;;;;5072381;28;20076;-61
2022/04/28 09:43:56;;;;;;;13.45;3.55;;;10.90;99.90;;;;;;5071365;28;20059;-61
2022/04/28 09:46:25;;;;;;;;;;;11.00;99.90;;;;;;5072401;28;20052;-61
2022/04/28 09:48:52;;;;;;;15.18;3.70;;;10.80;99.90;;;;;;5071728;28;19927;-62
2022/04/28 09:51:22;;;;;;;14.15;3.40;;;10.90;99.90;;;;;;5071730;28;20041;-62
2022/04/28 09:53:49;;;;;;;10.45;3.65;;;11.20;99.90;;;;;;5071623;28;20087;-61
2022/04/28 09:56:19;;;;;;;13.93;4.05;;;11.00;99.90;;;;;;5071539;28;20412;-61
2022/04/28 09:58:45;;;;;;;17.48;4.05;;;11.40;99.90;;;;;;5071924;28;20049;-61
2022/04/28 10:01:11;;;;;;;10.13;3.50;;;11.20;99.90;;;;;;5071700;28;20045;-61
2022/04/28 10:03:40;;;;;;;13.77;4.13;;;11.60;99.90;;;;;;5071699;28;20123;-61
2022/04/28 10:06:06;;;;;;;12.88;3.85;;;11.20;99.90;;;;;;5071549;28;20397;-62
2022/04/28 10:08:38;;;;;;;16.63;3.72;;;12.10;99.90;;;;;;5074889;28;20076;-62
2022/04/28 10:11:11;;;;;;;8.25;3.10;;;11.00;99.90;;;;;;5074821;28;20120;-62
2022/04/28 10:13:38;;;;;;;14.57;3.63;;;11.10;99.90;;;;;;5075128;28;20487;-62
2022/04/28 10:16:12;;;;;;;15.68;3.17;;;11.80;99.90;;;;;;5074898;28;20505;-62
2022/04/28 10:18:48;;;;;;;11.70;3.47;;;11.50;99.90;;;;;;5074923;28;20048;-62
2022/04/28 10:21:29;;;;;;;13.43;3.80;;;11.70;99.90;;;;;;5074997;28;20193;-62
2022/04/28 10:32:53;;;;;;;17.02;2.72;;;11.50;99.90;;;;;;5074327;28;20082;-62
2022/04/28 10:35:31;;;;;;;;;;;11.10;99.90;;;;;;5075312;28;20048;-62
2022/04/28 10:38:09;;;;;;;13.77;3.17;;;11.50;99.90;;;;;;5074720;28;19920;-63
2022/04/28 10:41:04;;;;;;;11.07;2.75;;;11.60;99.90;;;;;;5074598;28;20056;-62
2022/04/28 10:43:33;;;;;;;16.05;3.05;;;11.40;99.90;;;;;;5074680;28;20044;-62
2022/04/28 10:46:22;;;;;;;11.68;3.15;;;11.70;99.90;;;;;;5073030;28;20044;-62
2022/04/28 10:48:54;;;;;;;12.75;2.95;;;11.70;99.90;;;;;;5072942;28;20068;-63
2022/04/28 10:51:26;;;;;;;13.93;3.08;;;12.50;99.90;;;;;;5074273;28;20044;-62
2022/04/28 10:54:11;;;;;;;11.52;2.92;;;11.80;99.90;;;;;;5074367;28;20051;-62
2022/04/28 10:56:39;;;;;;;11.95;3.13;;;11.80;99.90;;;;;;5074404;28;20048;-61
2022/04/28 10:59:34;;;;;;;9.48;3.13;;;11.50;99.90;;;;;;5081215;28;20059;-62
2022/04/28 11:02:11;;;;;;;10.10;2.60;;;11.20;99.90;;;;;;5053746;28;20079;-64
2022/04/28 11:04:39;;;;;;;10.30;2.70;;;12.30;99.90;;;;;;5054195;28;20045;-63
2022/04/28 11:07:14;;;;;;;14.85;2.50;;;11.20;99.90;;;;;;5054060;28;20049;-61
2022/04/28 11:09:44;;;;;;;10.90;2.88;;;11.60;99.90;;;;;;5054184;28;20053;-63
2022/04/28 11:12:12;;;;;;;12.38;2.70;;;11.80;99.90;;;;;;5053677;28;20144;-63
2022/04/28 11:14:45;;;;;;;11.80;2.88;;;11.20;99.90;;;;;;5053870;28;20084;-62
2022/04/28 11:17:11;;;;;;;9.48;3.03;;;11.10;99.90;;;;;;5053630;28;20405;-62
2022/04/28 11:19:37;;;;;;;9.02;2.72;;;11.30;99.90;;;;;;5055557;28;20446;-62
2022/04/28 11:22:03;;;;;;;9.55;2.75;;;11.20;99.90;;;;;;5073554;28;20107;-62
2022/04/28 11:24:30;;;;;;;9.90;2.40;;;11.20;99.90;;;;;;5073240;28;20085;-62
2022/04/28 11:26:59;;;;;;;10.52;2.65;;;11.40;99.90;;;;;;5071597;28;20048;-63
2022/04/28 11:29:26;;;;;;;7.95;2.40;;;11.70;99.90;;;;;;5072946;28;20048;-61
2022/04/28 11:31:53;;;;;;;13.73;2.45;;;11.90;99.90;;;;;;5073155;28;20048;-61
2022/04/28 11:34:19;;;;;;;11.20;3.13;;;12.30;99.90;;;;;;5073085;28;20056;-61
2022/04/28 11:36:46;;;;;;;11.35;2.33;;;11.80;99.90;;;;;;5073186;28;20052;-62
2022/04/28 11:39:11;;;;;;;;;;;12.00;99.90;;;;;;5073815;28;20461;-62
2022/04/28 11:41:42;;;;;;;13.70;2.55;;;11.80;99.90;;;;;;5073171;28;19920;-62
2022/04/28 11:44:16;;;;;;;12.57;3.63;;;11.40;99.90;;;;;;5072043;28;20048;-62
2022/04/28 11:46:42;;;;;;;14.90;3.28;;;12.90;99.90;;;;;;5072263;28;20055;-62
2022/04/28 11:49:08;;;;;;;9.90;2.78;;;11.80;99.90;;;;;;5072873;28;20044;-63
2022/04/28 11:51:34;;;;;;;;;;;11.90;99.90;;;;;;5073303;28;20395;-61
2022/04/28 11:54:01;;;;;;;12.20;2.88;;;11.70;99.90;;;;;;5073228;28;19961;-63
2022/04/28 11:56:30;;;;;;;10.27;2.63;;;11.40;99.90;;;;;;5073019;28;20084;-62
2022/04/28 11:58:58;;;;;;;9.18;3.10;;;11.70;99.90;;;;;;5072953;28;20389;-63
2022/04/28 12:01:26;;;;;;;8.57;2.38;;;12.00;99.90;;;;;;5072816;28;20041;-63
2022/04/28 12:03:56;;;;;;;10.98;2.67;;;12.50;99.90;;;;;;5072889;28;20469;-62
2022/04/28 12:06:23;;;;;;;12.75;2.33;;;12.70;99.90;;;;;;5072851;28;20087;-63
2022/04/28 12:08:58;;;;;;;13.90;2.58;;;12.70;99.90;;;;;;5072490;28;20088;-62
2022/04/28 12:14:23;;;;;;;11.15;2.97;;;13.00;99.90;;;;;;5072485;28;20048;-62
2022/04/28 12:19:53;;;;;;;13.98;2.63;;;13.80;99.90;;;;;;5072432;28;20056;-62
2022/04/28 12:22:33;;;;;;;13.15;2.40;;;12.40;99.90;;;;;;5072490;28;20446;-62
2022/04/28 12:25:05;;;;;;;17.65;2.80;;;12.40;99.90;;;;;;5072458;28;20040;-62
2022/04/28 12:27:45;;;;;;;8.40;2.30;;;12.60;99.90;;;;;;5077735;28;20098;-61
2022/04/28 12:30:16;;;;;;;11.05;2.42;;;12.50;99.90;;;;;;5081108;28;20386;-65
2022/04/28 12:32:51;;;;;;;9.75;2.70;;;12.70;99.90;;;;;;5078967;28;20033;-63
2022/04/28 12:35:30;;;;;;;19.15;2.45;;;12.70;99.90;;;;;;5081311;28;20067;-62
2022/04/28 12:37:59;;;;;;;8.00;2.03;;;13.20;99.90;;;;;;5079727;28;20044;-62
2022/04/28 12:40:25;;;;;;;7.18;2.05;;;12.80;99.90;;;;;;5082039;28;20563;-62
2022/04/28 12:42:51;;;;;;;8.35;2.05;;;12.40;99.90;;;;;;5082649;28;20052;-63
2022/04/28 12:45:50;;;;;;;7.85;2.67;;;12.70;99.90;;;;;;5080964;28;20218;-61
2022/04/28 12:48:26;;;;;;;9.13;2.60;;;12.60;99.90;;;;;;5076445;28;20143;-63
2022/04/28 12:51:15;;;;;;;13.95;2.33;;;12.90;99.90;;;;;;5090540;28;20563;-63
2022/04/28 12:53:44;;;;;;;9.77;2.25;;;13.10;99.90;;;;;;5092154;28;20858;-63
2022/04/28 12:56:16;;;;;;;9.20;2.13;;;12.90;99.90;;;;;;5092396;28;20044;-62
2022/04/28 12:58:54;;;;;;;10.15;2.30;;;12.80;99.90;;;;;;5092142;28;20048;-62
2022/04/28 13:01:20;;;;;;;9.57;2.10;;;12.70;99.90;;;;;;5092422;28;20036;-62
2022/04/28 13:03:54;;;;;;;;;;;13.10;99.90;;;;;;5091343;28;20087;-61
2022/04/28 13:06:20;;;;;;;12.25;3.03;;;11.90;99.90;;;;;;5092073;28;19919;-62
2022/04/28 13:08:48;;;;;;;9.70;2.03;;;13.10;99.90;;;;;;5092101;28;20059;-64
2022/04/28 13:11:14;;;;;;;9.63;2.20;;;12.10;99.90;;;;;;5092451;28;20052;-62
2022/04/28 13:13:40;;;;;;;;;;;12.00;99.90;;;;;;5092533;28;20040;-62
2022/04/28 13:16:05;;;;;;;11.45;2.30;;;12.10;99.90;;;;;;5090912;28;19920;-62
2022/04/28 13:18:31;;;;;;;8.18;2.20;;;11.90;99.90;;;;;;5091996;28;20081;-62
2022/04/28 13:20:56;;;;;;;8.93;2.42;;;12.30;99.90;;;;;;5091679;28;20048;-64
2022/04/28 13:23:22;;;;;;;7.53;2.08;;;12.00;99.90;;;;;;5091163;28;20048;-63
2022/04/28 13:25:48;;;;;;;;;;;12.60;99.90;;;;;;5092687;28;20076;-62
2022/04/28 13:28:14;;;;;;;10.02;2.30;;;12.50;99.90;;;;;;5088070;28;19924;-62